sensor_id;sensor_type;location;lat;lon;timestamp;temperature;humidity
21602;DHT22;10963;50.934;4.668;2024-02-21T00:02:20;11.10;99.90
21602;DHT22;10963;50.934;4.668;2024-02-21T00:04:49;11.10;99.90
21602;DHT22;10963;50.934;4.668;2024-02-21T00:07:14;11.20;99.90
21602;DHT22;10963;50.934;4.668;2024-02-21T00:09:40;11.10;99.90
21602;DHT22;10963;50.934;4.668;2024-02-21T00:12:06;11.00;99.90
21602;DHT22;10963;50.934;4.668;2024-02-21T00:14:32;11.00;99.90
21602;DHT22;10963;50.934;4.668;2024-02-21T00:16:58;11.00;99.90
21602;DHT22;10963;50.934;4.668;2024-02-21T00:19:24;11.10;99.90
21602;DHT22;10963;50.934;4.668;2024-02-21T00:21:50;11.10;99.90
21602;DHT22;10963;50.934;4.668;2024-02-21T00:24:15;11.00;99.90
21602;DHT22;10963;50.934;4.668;2024-02-21T00:26:43;11.00;99.90
21602;DHT22;10963;50.934;4.668;2024-02-21T00:29:09;10.90;99.90
21602;DHT22;10963;50.934;4.668;2024-02-21T00:31:35;10.80;99.90
21602;DHT22;10963;50.934;4.668;2024-02-21T00:34:03;10.90;99.90
21602;DHT22;10963;50.934;4.668;2024-02-21T00:36:31;10.90;99.90
21602;DHT22;10963;50.934;4.668;2024-02-21T00:38:57;11.10;99.90
21602;DHT22;10963;50.934;4.668;2024-02-21T00:41:22;11.00;99.90
21602;DHT22;10963;50.934;4.668;2024-02-21T00:43:50;10.90;99.90
21602;DHT22;10963;50.934;4.668;2024-02-21T00:46:18;11.00;99.90
21602;DHT22;10963;50.934;4.668;2024-02-21T00:48:47;10.90;99.90
21602;DHT22;10963;50.934;4.668;2024-02-21T00:51:12;11.00;99.90
21602;DHT22;10963;50.934;4.668;2024-02-21T00:53:38;11.10;99.90
21602;DHT22;10963;50.934;4.668;2024-02-21T00:56:05;10.80;99.90
21602;DHT22;10963;50.934;4.668;2024-02-21T00:58:36;10.70;99.90
21602;DHT22;10963;50.934;4.668;2024-02-21T01:01:01;10.60;99.90
21602;DHT22;10963;50.934;4.668;2024-02-21T01:03:28;10.40;99.90
21602;DHT22;10963;50.934;4.668;2024-02-21T01:05:54;10.40;99.90
21602;DHT22;10963;50.934;4.668;2024-02-21T01:08:22;10.50;99.90
21602;DHT22;10963;50.934;4.668;2024-02-21T01:10:47;10.60;99.90
21602;DHT22;10963;50.934;4.668;2024-02-21T01:13:15;10.80;99.90
21602;DHT22;10963;50.934;4.668;2024-02-21T01:15:43;10.70;99.90
21602;DHT22;10963;50.934;4.668;2024-02-21T01:18:09;10.80;99.90
21602;DHT22;10963;50.934;4.668;2024-02-21T01:20:35;10.80;99.90
21602;DHT22;10963;50.934;4.668;2024-02-21T01:23:00;10.70;99.90
21602;DHT22;10963;50.934;4.668;2024-02-21T01:25:26;10.60;99.90
21602;DHT22;10963;50.934;4.668;2024-02-21T01:27:52;10.50;99.90
21602;DHT22;10963;50.934;4.668;2024-02-21T01:30:17;10.50;99.90
21602;DHT22;10963;50.934;4.668;2024-02-21T01:32:43;10.30;99.90
21602;DHT22;10963;50.934;4.668;2024-02-21T01:35:11;10.00;99.90
21602;DHT22;10963;50.934;4.668;2024-02-21T01:37:39;10.20;99.90
21602;DHT22;10963;50.934;4.668;2024-02-21T01:40:05;10.00;99.90
21602;DHT22;10963;50.934;4.668;2024-02-21T01:42:38;10.00;99.90
21602;DHT22;10963;50.934;4.668;2024-02-21T01:45:05;9.90;99.90
21602;DHT22;10963;50.934;4.668;2024-02-21T01:47:33;10.00;99.90
21602;DHT22;10963;50.934;4.668;2024-02-21T01:50:00;9.90;99.90
21602;DHT22;10963;50.934;4.668;2024-02-21T01:52:28;9.70;99.90
21602;DHT22;10963;50.934;4.668;2024-02-21T01:54:57;9.70;99.90
21602;DHT22;10963;50.934;4.668;2024-02-21T01:57:23;9.70;99.90
21602;DHT22;10963;50.934;4.668;2024-02-21T01:59:49;9.80;99.90
21602;DHT22;10963;50.934;4.668;2024-02-21T02:02:15;9.60;99.90
21602;DHT22;10963;50.934;4.668;2024-02-21T02:04:42;9.70;99.90
21602;DHT22;10963;50.934;4.668;2024-02-21T02:07:08;9.80;99.90
21602;DHT22;10963;50.934;4.668;2024-02-21T02:09:37;9.80;99.90
21602;DHT22;10963;50.934;4.668;2024-02-21T02:12:05;9.80;99.90
21602;DHT22;10963;50.934;4.668;2024-02-21T02:14:31;9.70;99.90
21602;DHT22;10963;50.934;4.668;2024-02-21T02:16:57;9.80;99.90
21602;DHT22;10963;50.934;4.668;2024-02-21T02:19:22;9.60;99.90
21602;DHT22;10963;50.934;4.668;2024-02-21T02:22:13;9.60;99.90
21602;DHT22;10963;50.934;4.668;2024-02-21T02:24:42;9.60;99.90
21602;DHT22;10963;50.934;4.668;2024-02-21T02:27:09;9.60;99.90
21602;DHT22;10963;50.934;4.668;2024-02-21T02:29:35;9.70;99.90
21602;DHT22;10963;50.934;4.668;2024-02-21T02:32:01;9.60;99.90
21602;DHT22;10963;50.934;4.668;2024-02-21T02:34:29;9.60;99.90
21602;DHT22;10963;50.934;4.668;2024-02-21T02:36:56;9.70;99.90
21602;DHT22;10963;50.934;4.668;2024-02-21T02:39:21;9.70;99.90
21602;DHT22;10963;50.934;4.668;2024-02-21T02:41:50;9.60;99.90
21602;DHT22;10963;50.934;4.668;2024-02-21T02:44:15;9.60;99.90
21602;DHT22;10963;50.934;4.668;2024-02-21T02:46:41;9.60;99.90
21602;DHT22;10963;50.934;4.668;2024-02-21T02:49:07;9.50;99.90
21602;DHT22;10963;50.934;4.668;2024-02-21T02:51:33;9.50;99.90
21602;DHT22;10963;50.934;4.668;2024-02-21T02:54:02;9.60;99.90
21602;DHT22;10963;50.934;4.668;2024-02-21T02:56:27;9.60;99.90
21602;DHT22;10963;50.934;4.668;2024-02-21T02:58:53;9.70;99.90
21602;DHT22;10963;50.934;4.668;2024-02-21T03:01:19;9.70;99.90
21602;DHT22;10963;50.934;4.668;2024-02-21T03:03:47;9.70;99.90
21602;DHT22;10963;50.934;4.668;2024-02-21T03:06:17;9.70;99.90
21602;DHT22;10963;50.934;4.668;2024-02-21T03:08:45;9.70;99.90
21602;DHT22;10963;50.934;4.668;2024-02-21T03:11:11;9.80;99.90
21602;DHT22;10963;50.934;4.668;2024-02-21T03:13:37;9.90;99.90
21602;DHT22;10963;50.934;4.668;2024-02-21T03:16:03;9.90;99.90
21602;DHT22;10963;50.934;4.668;2024-02-21T03:18:31;9.90;99.90
21602;DHT22;10963;50.934;4.668;2024-02-21T03:20:57;9.90;99.90
21602;DHT22;10963;50.934;4.668;2024-02-21T03:23:22;10.00;99.90
21602;DHT22;10963;50.934;4.668;2024-02-21T03:25:48;9.80;99.90
21602;DHT22;10963;50.934;4.668;2024-02-21T03:28:14;9.80;99.90
21602;DHT22;10963;50.934;4.668;2024-02-21T03:30:40;9.80;99.90
21602;DHT22;10963;50.934;4.668;2024-02-21T03:33:06;9.70;99.90
21602;DHT22;10963;50.934;4.668;2024-02-21T03:35:34;9.60;99.90
21602;DHT22;10963;50.934;4.668;2024-02-21T03:38:07;9.60;99.90
21602;DHT22;10963;50.934;4.668;2024-02-21T03:40:33;9.60;99.90
21602;DHT22;10963;50.934;4.668;2024-02-21T03:42:58;9.60;99.90
21602;DHT22;10963;50.934;4.668;2024-02-21T03:45:26;9.60;99.90
21602;DHT22;10963;50.934;4.668;2024-02-21T03:47:52;9.50;99.90
21602;DHT22;10963;50.934;4.668;2024-02-21T03:50:18;9.50;99.90
21602;DHT22;10963;50.934;4.668;2024-02-21T03:52:46;9.50;99.90
21602;DHT22;10963;50.934;4.668;2024-02-21T03:55:12;9.60;99.90
21602;DHT22;10963;50.934;4.668;2024-02-21T03:57:37;9.60;99.90
21602;DHT22;10963;50.934;4.668;2024-02-21T04:00:04;9.50;99.90
21602;DHT22;10963;50.934;4.668;2024-02-21T04:02:31;9.40;99.90
21602;DHT22;10963;50.934;4.668;2024-02-21T04:04:59;9.50;99.90
21602;DHT22;10963;50.934;4.668;2024-02-21T04:07:27;9.30;99.90
21602;DHT22;10963;50.934;4.668;2024-02-21T04:09:53;9.30;99.90
21602;DHT22;10963;50.934;4.668;2024-02-21T04:12:23;9.20;99.90
21602;DHT22;10963;50.934;4.668;2024-02-21T04:14:50;9.30;99.90
21602;DHT22;10963;50.934;4.668;2024-02-21T04:17:16;9.40;99.90
21602;DHT22;10963;50.934;4.668;2024-02-21T04:19:45;9.40;99.90
21602;DHT22;10963;50.934;4.668;2024-02-21T04:22:10;9.40;99.90
21602;DHT22;10963;50.934;4.668;2024-02-21T04:24:36;9.40;99.90
21602;DHT22;10963;50.934;4.668;2024-02-21T04:27:02;9.30;99.90
21602;DHT22;10963;50.934;4.668;2024-02-21T04:29:30;9.30;99.90
21602;DHT22;10963;50.934;4.668;2024-02-21T04:31:58;9.40;99.90
21602;DHT22;10963;50.934;4.668;2024-02-21T04:34:26;9.30;99.90
21602;DHT22;10963;50.934;4.668;2024-02-21T04:36:54;9.30;99.90
21602;DHT22;10963;50.934;4.668;2024-02-21T04:39:22;9.40;99.90
21602;DHT22;10963;50.934;4.668;2024-02-21T04:41:48;9.40;99.90
21602;DHT22;10963;50.934;4.668;2024-02-21T04:44:16;9.60;99.90
21602;DHT22;10963;50.934;4.668;2024-02-21T04:46:47;9.50;99.90
21602;DHT22;10963;50.934;4.668;2024-02-21T04:49:13;9.40;99.90
21602;DHT22;10963;50.934;4.668;2024-02-21T04:51:40;9.50;99.90
21602;DHT22;10963;50.934;4.668;2024-02-21T04:54:06;9.50;99.90
21602;DHT22;10963;50.934;4.668;2024-02-21T04:56:32;9.60;99.90
21602;DHT22;10963;50.934;4.668;2024-02-21T04:58:57;9.60;99.90
21602;DHT22;10963;50.934;4.668;2024-02-21T05:01:23;9.60;99.90
21602;DHT22;10963;50.934;4.668;2024-02-21T05:03:49;9.50;99.90
21602;DHT22;10963;50.934;4.668;2024-02-21T05:06:15;9.60;99.90
21602;DHT22;10963;50.934;4.668;2024-02-21T05:08:41;9.60;99.90
21602;DHT22;10963;50.934;4.668;2024-02-21T05:11:06;9.50;99.90
21602;DHT22;10963;50.934;4.668;2024-02-21T05:13:32;9.60;99.90
21602;DHT22;10963;50.934;4.668;2024-02-21T05:15:58;9.60;99.90
21602;DHT22;10963;50.934;4.668;2024-02-21T05:18:27;9.60;99.90
21602;DHT22;10963;50.934;4.668;2024-02-21T05:20:53;9.60;99.90
21602;DHT22;10963;50.934;4.668;2024-02-21T05:23:22;9.60;99.90
21602;DHT22;10963;50.934;4.668;2024-02-21T05:25:50;9.60;99.90
21602;DHT22;10963;50.934;4.668;2024-02-21T05:28:16;9.50;99.90
21602;DHT22;10963;50.934;4.668;2024-02-21T05:30:42;9.60;99.90
21602;DHT22;10963;50.934;4.668;2024-02-21T05:33:11;9.60;99.90
21602;DHT22;10963;50.934;4.668;2024-02-21T05:35:36;9.70;99.90
21602;DHT22;10963;50.934;4.668;2024-02-21T05:38:02;9.60;99.90
21602;DHT22;10963;50.934;4.668;2024-02-21T05:40:36;9.60;99.90
21602;DHT22;10963;50.934;4.668;2024-02-21T05:43:02;9.60;99.90
21602;DHT22;10963;50.934;4.668;2024-02-21T05:45:30;9.70;99.90
21602;DHT22;10963;50.934;4.668;2024-02-21T05:47:58;9.70;99.90
21602;DHT22;10963;50.934;4.668;2024-02-21T05:50:27;9.80;99.90
21602;DHT22;10963;50.934;4.668;2024-02-21T05:52:54;9.90;99.90
21602;DHT22;10963;50.934;4.668;2024-02-21T05:55:25;9.80;99.90
21602;DHT22;10963;50.934;4.668;2024-02-21T05:57:53;9.80;99.90
21602;DHT22;10963;50.934;4.668;2024-02-21T06:00:23;9.80;99.90
21602;DHT22;10963;50.934;4.668;2024-02-21T06:02:51;9.70;99.90
21602;DHT22;10963;50.934;4.668;2024-02-21T06:05:17;9.70;99.90
21602;DHT22;10963;50.934;4.668;2024-02-21T06:07:42;9.70;99.90
21602;DHT22;10963;50.934;4.668;2024-02-21T06:10:11;9.80;99.90
21602;DHT22;10963;50.934;4.668;2024-02-21T06:12:36;9.90;99.90
21602;DHT22;10963;50.934;4.668;2024-02-21T06:15:02;9.90;99.90
21602;DHT22;10963;50.934;4.668;2024-02-21T06:17:31;10.00;99.90
21602;DHT22;10963;50.934;4.668;2024-02-21T06:19:56;10.00;99.90
21602;DHT22;10963;50.934;4.668;2024-02-21T06:22:22;9.90;99.90
21602;DHT22;10963;50.934;4.668;2024-02-21T06:24:50;9.90;99.90
21602;DHT22;10963;50.934;4.668;2024-02-21T06:27:16;9.90;99.90
21602;DHT22;10963;50.934;4.668;2024-02-21T06:29:42;10.00;99.90
21602;DHT22;10963;50.934;4.668;2024-02-21T06:32:11;10.10;99.90
21602;DHT22;10963;50.934;4.668;2024-02-21T06:34:37;10.10;99.90
21602;DHT22;10963;50.934;4.668;2024-02-21T06:37:02;9.90;99.90
21602;DHT22;10963;50.934;4.668;2024-02-21T06:39:30;9.80;99.90
21602;DHT22;10963;50.934;4.668;2024-02-21T06:41:56;9.90;99.90
21602;DHT22;10963;50.934;4.668;2024-02-21T06:44:24;9.80;99.90
21602;DHT22;10963;50.934;4.668;2024-02-21T06:46:53;9.80;99.90
21602;DHT22;10963;50.934;4.668;2024-02-21T06:49:20;9.80;99.90
21602;DHT22;10963;50.934;4.668;2024-02-21T06:51:46;9.90;99.90
21602;DHT22;10963;50.934;4.668;2024-02-21T06:54:11;9.80;99.90
21602;DHT22;10963;50.934;4.668;2024-02-21T06:56:37;9.80;99.90
21602;DHT22;10963;50.934;4.668;2024-02-21T06:59:03;9.80;99.90
21602;DHT22;10963;50.934;4.668;2024-02-21T07:01:32;9.90;99.90
21602;DHT22;10963;50.934;4.668;2024-02-21T07:03:58;10.00;99.90
21602;DHT22;10963;50.934;4.668;2024-02-21T07:06:24;10.00;99.90
21602;DHT22;10963;50.934;4.668;2024-02-21T07:08:50;9.90;99.90
21602;DHT22;10963;50.934;4.668;2024-02-21T07:11:18;9.80;99.90
21602;DHT22;10963;50.934;4.668;2024-02-21T07:13:44;9.80;99.90
21602;DHT22;10963;50.934;4.668;2024-02-21T07:16:09;9.80;99.90
21602;DHT22;10963;50.934;4.668;2024-02-21T07:18:37;9.80;99.90
21602;DHT22;10963;50.934;4.668;2024-02-21T07:21:03;9.80;99.90
21602;DHT22;10963;50.934;4.668;2024-02-21T07:23:29;9.70;99.90
21602;DHT22;10963;50.934;4.668;2024-02-21T07:25:55;9.60;99.90
21602;DHT22;10963;50.934;4.668;2024-02-21T07:28:23;9.70;99.90
21602;DHT22;10963;50.934;4.668;2024-02-21T07:30:49;9.70;99.90
21602;DHT22;10963;50.934;4.668;2024-02-21T07:33:14;9.70;99.90
21602;DHT22;10963;50.934;4.668;2024-02-21T07:35:40;9.70;99.90
21602;DHT22;10963;50.934;4.668;2024-02-21T07:38:10;9.60;99.90
21602;DHT22;10963;50.934;4.668;2024-02-21T07:40:38;9.50;99.90
21602;DHT22;10963;50.934;4.668;2024-02-21T07:43:04;9.40;99.90
21602;DHT22;10963;50.934;4.668;2024-02-21T07:45:31;9.20;99.90
21602;DHT22;10963;50.934;4.668;2024-02-21T07:47:57;9.30;99.90
21602;DHT22;10963;50.934;4.668;2024-02-21T07:50:23;9.20;99.90
21602;DHT22;10963;50.934;4.668;2024-02-21T07:52:48;9.40;99.90
21602;DHT22;10963;50.934;4.668;2024-02-21T07:55:14;9.40;99.90
21602;DHT22;10963;50.934;4.668;2024-02-21T07:57:45;9.40;99.90
21602;DHT22;10963;50.934;4.668;2024-02-21T08:00:14;9.60;99.90
21602;DHT22;10963;50.934;4.668;2024-02-21T08:02:48;9.70;99.90
21602;DHT22;10963;50.934;4.668;2024-02-21T08:05:14;9.80;99.90
21602;DHT22;10963;50.934;4.668;2024-02-21T08:07:40;9.90;99.90
21602;DHT22;10963;50.934;4.668;2024-02-21T08:10:06;10.00;99.90
21602;DHT22;10963;50.934;4.668;2024-02-21T08:12:39;9.80;99.90
21602;DHT22;10963;50.934;4.668;2024-02-21T08:15:08;9.80;99.90
21602;DHT22;10963;50.934;4.668;2024-02-21T08:17:40;9.80;99.90
21602;DHT22;10963;50.934;4.668;2024-02-21T08:20:06;9.80;99.90
21602;DHT22;10963;50.934;4.668;2024-02-21T08:22:32;9.80;99.90
21602;DHT22;10963;50.934;4.668;2024-02-21T08:24:58;10.00;99.90
21602;DHT22;10963;50.934;4.668;2024-02-21T08:27:24;10.10;99.90
21602;DHT22;10963;50.934;4.668;2024-02-21T08:29:50;9.90;99.90
21602;DHT22;10963;50.934;4.668;2024-02-21T08:32:16;9.80;99.90
21602;DHT22;10963;50.934;4.668;2024-02-21T08:34:42;9.80;99.90
21602;DHT22;10963;50.934;4.668;2024-02-21T08:37:07;9.80;99.90
21602;DHT22;10963;50.934;4.668;2024-02-21T08:39:35;9.70;99.90
21602;DHT22;10963;50.934;4.668;2024-02-21T08:42:01;9.70;99.90
21602;DHT22;10963;50.934;4.668;2024-02-21T08:44:29;9.70;99.90
21602;DHT22;10963;50.934;4.668;2024-02-21T08:46:55;9.90;99.90
21602;DHT22;10963;50.934;4.668;2024-02-21T08:49:23;10.00;99.90
21602;DHT22;10963;50.934;4.668;2024-02-21T08:51:51;10.10;99.90
21602;DHT22;10963;50.934;4.668;2024-02-21T08:54:17;10.00;99.90
21602;DHT22;10963;50.934;4.668;2024-02-21T08:56:43;10.10;99.90
21602;DHT22;10963;50.934;4.668;2024-02-21T08:59:11;10.10;99.90
21602;DHT22;10963;50.934;4.668;2024-02-21T09:01:36;9.90;99.90
21602;DHT22;10963;50.934;4.668;2024-02-21T09:04:02;9.90;99.90
21602;DHT22;10963;50.934;4.668;2024-02-21T09:06:30;9.90;99.90
21602;DHT22;10963;50.934;4.668;2024-02-21T09:08:58;9.90;99.90
21602;DHT22;10963;50.934;4.668;2024-02-21T09:11:24;10.00;99.90
21602;DHT22;10963;50.934;4.668;2024-02-21T09:13:50;10.10;99.90
21602;DHT22;10963;50.934;4.668;2024-02-21T09:16:15;10.10;99.90
21602;DHT22;10963;50.934;4.668;2024-02-21T09:18:41;10.10;99.90
21602;DHT22;10963;50.934;4.668;2024-02-21T09:21:10;10.20;99.90
21602;DHT22;10963;50.934;4.668;2024-02-21T09:23:36;10.30;99.90
21602;DHT22;10963;50.934;4.668;2024-02-21T09:26:01;10.20;99.90
21602;DHT22;10963;50.934;4.668;2024-02-21T09:28:30;10.40;99.90
21602;DHT22;10963;50.934;4.668;2024-02-21T09:30:55;10.40;99.90
21602;DHT22;10963;50.934;4.668;2024-02-21T09:33:21;10.40;99.90
21602;DHT22;10963;50.934;4.668;2024-02-21T09:35:49;10.50;99.90
21602;DHT22;10963;50.934;4.668;2024-02-21T09:38:15;10.60;99.90
21602;DHT22;10963;50.934;4.668;2024-02-21T09:40:44;10.40;99.90
21602;DHT22;10963;50.934;4.668;2024-02-21T09:43:09;10.50;99.90
21602;DHT22;10963;50.934;4.668;2024-02-21T09:45:35;10.40;99.90
21602;DHT22;10963;50.934;4.668;2024-02-21T09:50:57;10.90;99.90
21602;DHT22;10963;50.934;4.668;2024-02-21T09:53:24;11.00;99.90
21602;DHT22;10963;50.934;4.668;2024-02-21T09:55:53;10.80;99.90
21602;DHT22;10963;50.934;4.668;2024-02-21T09:58:18;10.70;99.90
21602;DHT22;10963;50.934;4.668;2024-02-21T10:00:44;10.90;99.90
21602;DHT22;10963;50.934;4.668;2024-02-21T10:03:12;10.90;99.90
21602;DHT22;10963;50.934;4.668;2024-02-21T10:05:45;10.70;99.90
21602;DHT22;10963;50.934;4.668;2024-02-21T10:08:14;10.80;99.90
21602;DHT22;10963;50.934;4.668;2024-02-21T10:10:43;11.00;99.90
21602;DHT22;10963;50.934;4.668;2024-02-21T10:13:21;11.10;99.90
21602;DHT22;10963;50.934;4.668;2024-02-21T10:16:06;11.00;99.90
21602;DHT22;10963;50.934;4.668;2024-02-21T10:18:34;11.10;99.90
21602;DHT22;10963;50.934;4.668;2024-02-21T10:21:02;11.10;99.90
21602;DHT22;10963;50.934;4.668;2024-02-21T10:23:29;11.30;99.90
21602;DHT22;10963;50.934;4.668;2024-02-21T10:26:04;11.30;99.90
21602;DHT22;10963;50.934;4.668;2024-02-21T10:28:30;11.10;99.90
21602;DHT22;10963;50.934;4.668;2024-02-21T10:31:01;11.10;99.90
21602;DHT22;10963;50.934;4.668;2024-02-21T10:33:27;11.10;99.90
21602;DHT22;10963;50.934;4.668;2024-02-21T10:35:53;11.30;99.90
21602;DHT22;10963;50.934;4.668;2024-02-21T10:38:19;11.30;99.90
21602;DHT22;10963;50.934;4.668;2024-02-21T10:40:49;11.30;99.90
21602;DHT22;10963;50.934;4.668;2024-02-21T10:43:18;11.50;99.90
21602;DHT22;10963;50.934;4.668;2024-02-21T10:45:45;11.60;99.90
21602;DHT22;10963;50.934;4.668;2024-02-21T10:48:14;11.50;99.90
21602;DHT22;10963;50.934;4.668;2024-02-21T10:51:07;11.40;99.90
21602;DHT22;10963;50.934;4.668;2024-02-21T10:56:26;11.50;99.90
21602;DHT22;10963;50.934;4.668;2024-02-21T10:58:53;11.50;99.90
21602;DHT22;10963;50.934;4.668;2024-02-21T11:01:21;11.30;99.90
21602;DHT22;10963;50.934;4.668;2024-02-21T11:03:52;11.20;99.90
21602;DHT22;10963;50.934;4.668;2024-02-21T11:06:20;11.20;99.90
21602;DHT22;10963;50.934;4.668;2024-02-21T11:08:47;11.20;99.90
21602;DHT22;10963;50.934;4.668;2024-02-21T11:11:15;11.20;99.90
21602;DHT22;10963;50.934;4.668;2024-02-21T11:13:46;11.20;99.90
21602;DHT22;10963;50.934;4.668;2024-02-21T11:16:22;11.30;99.90
21602;DHT22;10963;50.934;4.668;2024-02-21T11:18:49;11.50;99.90
21602;DHT22;10963;50.934;4.668;2024-02-21T11:21:17;11.50;99.90
21602;DHT22;10963;50.934;4.668;2024-02-21T11:23:43;11.40;99.90
21602;DHT22;10963;50.934;4.668;2024-02-21T11:26:09;11.30;99.90
21602;DHT22;10963;50.934;4.668;2024-02-21T11:28:36;11.20;99.90
21602;DHT22;10963;50.934;4.668;2024-02-21T11:31:13;11.40;99.90
21602;DHT22;10963;50.934;4.668;2024-02-21T11:33:44;11.40;99.90
21602;DHT22;10963;50.934;4.668;2024-02-21T11:36:26;11.50;99.90
21602;DHT22;10963;50.934;4.668;2024-02-21T11:38:53;11.50;99.90
21602;DHT22;10963;50.934;4.668;2024-02-21T11:41:21;11.40;99.90
21602;DHT22;10963;50.934;4.668;2024-02-21T11:43:48;11.50;99.90
21602;DHT22;10963;50.934;4.668;2024-02-21T11:46:15;11.60;99.90
21602;DHT22;10963;50.934;4.668;2024-02-21T11:48:45;11.70;99.90
21602;DHT22;10963;50.934;4.668;2024-02-21T11:51:21;11.60;99.90
21602;DHT22;10963;50.934;4.668;2024-02-21T11:53:48;11.50;99.90
21602;DHT22;10963;50.934;4.668;2024-02-21T11:56:16;11.40;99.90
21602;DHT22;10963;50.934;4.668;2024-02-21T11:58:42;11.40;99.90
21602;DHT22;10963;50.934;4.668;2024-02-21T12:01:10;11.50;99.90
21602;DHT22;10963;50.934;4.668;2024-02-21T12:03:42;11.50;99.90
21602;DHT22;10963;50.934;4.668;2024-02-21T12:06:15;11.50;99.90
21602;DHT22;10963;50.934;4.668;2024-02-21T12:08:47;11.50;99.90
21602;DHT22;10963;50.934;4.668;2024-02-21T12:11:20;11.50;99.90
21602;DHT22;10963;50.934;4.668;2024-02-21T12:13:57;11.50;99.90
21602;DHT22;10963;50.934;4.668;2024-02-21T12:16:24;11.40;99.90
21602;DHT22;10963;50.934;4.668;2024-02-21T12:18:53;11.40;99.90
21602;DHT22;10963;50.934;4.668;2024-02-21T12:21:30;11.20;99.90
21602;DHT22;10963;50.934;4.668;2024-02-21T12:23:58;11.10;99.90
21602;DHT22;10963;50.934;4.668;2024-02-21T12:26:24;11.10;99.90
21602;DHT22;10963;50.934;4.668;2024-02-21T12:28:51;11.20;99.90
21602;DHT22;10963;50.934;4.668;2024-02-21T12:31:17;11.20;99.90
21602;DHT22;10963;50.934;4.668;2024-02-21T12:33:45;11.20;99.90
21602;DHT22;10963;50.934;4.668;2024-02-21T12:36:11;11.20;99.90
21602;DHT22;10963;50.934;4.668;2024-02-21T12:38:37;11.30;99.90
21602;DHT22;10963;50.934;4.668;2024-02-21T12:41:03;11.20;99.90
21602;DHT22;10963;50.934;4.668;2024-02-21T12:43:33;11.20;99.90
21602;DHT22;10963;50.934;4.668;2024-02-21T12:46:02;11.30;99.90
21602;DHT22;10963;50.934;4.668;2024-02-21T12:48:28;11.20;99.90
21602;DHT22;10963;50.934;4.668;2024-02-21T12:50:54;11.40;99.90
21602;DHT22;10963;50.934;4.668;2024-02-21T12:53:21;11.50;99.90
21602;DHT22;10963;50.934;4.668;2024-02-21T12:55:48;11.40;99.90
21602;DHT22;10963;50.934;4.668;2024-02-21T12:58:14;11.50;99.90
21602;DHT22;10963;50.934;4.668;2024-02-21T13:00:41;11.40;99.90
21602;DHT22;10963;50.934;4.668;2024-02-21T13:03:09;11.40;99.90
21602;DHT22;10963;50.934;4.668;2024-02-21T13:05:36;11.40;99.90
21602;DHT22;10963;50.934;4.668;2024-02-21T13:08:07;11.40;99.90
21602;DHT22;10963;50.934;4.668;2024-02-21T13:10:37;11.50;99.90
21602;DHT22;10963;50.934;4.668;2024-02-21T13:13:03;11.50;99.90
21602;DHT22;10963;50.934;4.668;2024-02-21T13:15:29;11.50;99.90
21602;DHT22;10963;50.934;4.668;2024-02-21T13:17:58;11.40;99.90
21602;DHT22;10963;50.934;4.668;2024-02-21T13:20:25;11.40;99.90
21602;DHT22;10963;50.934;4.668;2024-02-21T13:22:51;11.40;99.90
21602;DHT22;10963;50.934;4.668;2024-02-21T13:25:17;11.40;99.90
21602;DHT22;10963;50.934;4.668;2024-02-21T13:27:45;11.40;99.90
21602;DHT22;10963;50.934;4.668;2024-02-21T13:30:14;11.40;99.90
21602;DHT22;10963;50.934;4.668;2024-02-21T13:32:44;11.50;99.90
21602;DHT22;10963;50.934;4.668;2024-02-21T13:35:13;11.50;99.90
21602;DHT22;10963;50.934;4.668;2024-02-21T13:37:44;11.40;99.90
21602;DHT22;10963;50.934;4.668;2024-02-21T13:40:10;11.40;99.90
21602;DHT22;10963;50.934;4.668;2024-02-21T13:42:37;11.30;99.90
21602;DHT22;10963;50.934;4.668;2024-02-21T13:45:04;11.30;99.90
21602;DHT22;10963;50.934;4.668;2024-02-21T13:47:33;11.30;99.90
21602;DHT22;10963;50.934;4.668;2024-02-21T13:50:00;11.40;99.90
21602;DHT22;10963;50.934;4.668;2024-02-21T13:52:25;11.40;99.90
21602;DHT22;10963;50.934;4.668;2024-02-21T13:54:52;11.50;99.90
21602;DHT22;10963;50.934;4.668;2024-02-21T13:57:18;11.50;99.90
21602;DHT22;10963;50.934;4.668;2024-02-21T13:59:44;11.40;99.90
21602;DHT22;10963;50.934;4.668;2024-02-21T14:02:12;11.40;99.90
21602;DHT22;10963;50.934;4.668;2024-02-21T14:04:39;11.30;99.90
21602;DHT22;10963;50.934;4.668;2024-02-21T14:07:07;11.20;99.90
21602;DHT22;10963;50.934;4.668;2024-02-21T14:09:33;11.10;99.90
21602;DHT22;10963;50.934;4.668;2024-02-21T14:11:58;11.10;99.90
21602;DHT22;10963;50.934;4.668;2024-02-21T14:14:26;11.10;99.90
21602;DHT22;10963;50.934;4.668;2024-02-21T14:16:52;11.10;99.90
21602;DHT22;10963;50.934;4.668;2024-02-21T14:19:21;11.10;99.90
21602;DHT22;10963;50.934;4.668;2024-02-21T14:21:47;11.20;99.90
21602;DHT22;10963;50.934;4.668;2024-02-21T14:24:15;11.20;99.90
21602;DHT22;10963;50.934;4.668;2024-02-21T14:26:41;11.30;99.90
21602;DHT22;10963;50.934;4.668;2024-02-21T14:29:07;11.20;99.90
21602;DHT22;10963;50.934;4.668;2024-02-21T14:31:32;11.10;99.90
21602;DHT22;10963;50.934;4.668;2024-02-21T14:33:58;11.10;99.90
21602;DHT22;10963;50.934;4.668;2024-02-21T14:36:26;11.10;99.90
21602;DHT22;10963;50.934;4.668;2024-02-21T14:38:52;11.00;99.90
21602;DHT22;10963;50.934;4.668;2024-02-21T14:41:20;11.00;99.90
21602;DHT22;10963;50.934;4.668;2024-02-21T14:43:46;11.00;99.90
21602;DHT22;10963;50.934;4.668;2024-02-21T14:46:14;10.80;99.90
21602;DHT22;10963;50.934;4.668;2024-02-21T14:48:40;10.90;99.90
21602;DHT22;10963;50.934;4.668;2024-02-21T14:51:08;10.90;99.90
21602;DHT22;10963;50.934;4.668;2024-02-21T14:53:36;11.00;99.90
21602;DHT22;10963;50.934;4.668;2024-02-21T14:56:04;10.90;99.90
21602;DHT22;10963;50.934;4.668;2024-02-21T14:58:35;10.90;99.90
21602;DHT22;10963;50.934;4.668;2024-02-21T15:01:03;10.80;99.90
21602;DHT22;10963;50.934;4.668;2024-02-21T15:03:29;10.70;99.90
21602;DHT22;10963;50.934;4.668;2024-02-21T15:05:54;10.80;99.90
21602;DHT22;10963;50.934;4.668;2024-02-21T15:08:20;10.70;99.90
21602;DHT22;10963;50.934;4.668;2024-02-21T15:10:46;10.60;99.90
21602;DHT22;10963;50.934;4.668;2024-02-21T15:13:12;10.60;99.90
21602;DHT22;10963;50.934;4.668;2024-02-21T15:15:37;10.50;99.90
21602;DHT22;10963;50.934;4.668;2024-02-21T15:18:03;10.40;99.90
21602;DHT22;10963;50.934;4.668;2024-02-21T15:20:29;10.40;99.90
21602;DHT22;10963;50.934;4.668;2024-02-21T15:22:57;10.30;99.90
21602;DHT22;10963;50.934;4.668;2024-02-21T15:25:26;10.30;99.90
21602;DHT22;10963;50.934;4.668;2024-02-21T15:27:52;10.20;99.90
21602;DHT22;10963;50.934;4.668;2024-02-21T15:30:18;10.10;99.90
21602;DHT22;10963;50.934;4.668;2024-02-21T15:32:44;10.10;99.90
21602;DHT22;10963;50.934;4.668;2024-02-21T15:35:10;10.20;99.90
21602;DHT22;10963;50.934;4.668;2024-02-21T15:37:38;10.10;99.90
21602;DHT22;10963;50.934;4.668;2024-02-21T15:40:04;10.20;99.90
21602;DHT22;10963;50.934;4.668;2024-02-21T15:42:32;10.10;99.90
21602;DHT22;10963;50.934;4.668;2024-02-21T15:44:58;10.10;99.90